Terminal Aerodrome Forecast
Issued by NWS

Home | Current Version | Previous Version | Graphics & Text | Print | Product List | Glossary On
Versions: 1 2 3 4 5 6 7 8 9 10 11 12 13 14 15
478
FTUS43 KICT 142345
TAFHUT
TAF
KHUT 142345Z 1500/1524 18007KT P6SM SCT060
     FM150200 16005KT P6SM SCT150
     FM151000 15004KT 3SM BR BKN004
     FM151300 15007KT P6SM SCT015
     FM151800 17011KT P6SM SCT035=

USA.gov is the U.S. government's official web portal to all federal, state and local government web resources and services.